Flight Track Log - Related Links

Times and Time Zones

All times are in EST time to prevent confusion due to time zone crossing. See the SWA1725 flight status page for this flight to view local times or setup timezone preferences in your user account.

Time Position Orientation Groundspeed Altitude Reporting Facility
EST Latitude Longitude Course Direction KTS MPH feet Rate Location/Type
Sat 02:55:38 PM 38.7500 -90.3833 122° Southeast 145 167 1,800  Level Gateway TRACON
Sat 02:56:26 PM 38.7833 -90.4333 311° West 208 239 3,000 1,517 Climbing Gateway TRACON
Sat 02:57:05 PM 38.7736 -90.4817 256° West 239 275 4,000 2,495 Climbing Kansas Center
Sat 02:58:07 PM 38.7075 -90.4806 179° South 267 307 7,200 2,758 Climbing Kansas Center
Sat 02:59:09 PM 38.6558 -90.3794 123° Southeast 298 343 9,700 2,226 Climbing Kansas Center
Sat 03:00:11 PM 38.6081 -90.2772 121° Southeast 329 379 11,800 2,419 Climbing Kansas Center
Sat 03:01:00 PM 38.3012 -89.6690 122° Southeast  Level FlightAware
Sat 03:01:13 PM 38.5528 -90.1636 122° Southeast 366 421 14,700  Level Kansas Center
Sat 03:02:14 PM 38.4850 -90.0261 122° Southeast 384 442 15,200 1,463 Climbing Kansas Center
Sat 03:03:16 PM 38.4247 -89.9033 122° Southeast 392 451 17,700 2,419 Climbing Kansas Center
Sat 03:04:18 PM 38.3661 -89.7775 121° Southeast 406 467 20,200 2,323 Climbing Kansas Center
Sat 03:05:20 PM 38.2992 -89.6589 126° Southeast 411 473 22,500 2,049 Climbing Kansas Center
Sat 03:06:21 PM 38.2208 -89.5478 132° Southeast 419 482 24,400 1,756 Climbing Kansas Center
Sat 03:07:23 PM 38.1400 -89.4331 132° Southeast 433 498 26,100 1,694 Climbing Kansas Center
Sat 03:08:25 PM 38.0453 -89.2983 132° Southeast 437 503 27,900 1,561 Climbing Kansas Center
Sat 03:09:26 PM 37.9611 -89.1783 132° Southeast 451 519 29,300 1,220 Climbing Kansas Center
Sat 03:10:28 PM 37.8750 -89.0556 132° Southeast 461 531 30,400 968 Climbing Kansas Center
Sat 03:11:30 PM 37.7925 -88.9372 131° Southeast 475 547 31,300 780 Climbing Kansas Center
Sat 03:12:31 PM 37.7000 -88.8081 132° Southeast 487 560 32,000 829 Climbing Kansas Center
Sat 03:13:33 PM 37.6000 -88.6681 132° Southeast 498 573 33,000 966 Climbing Kansas Center
Sat 03:14:29 PM 37.5111 -88.5444 132° Southeast 506 582 33,900 864 Climbing Memphis Center
Sat 03:15:31 PM 37.4158 -88.4125 132° Southeast 507 583 34,700 1,161 Climbing Memphis Center
Sat 03:16:33 PM 37.3206 -88.2800 132° Southeast 507 583 36,300 1,113 Climbing Memphis Center
Sat 03:17:35 PM 37.2094 -88.1281 133° Southeast 496 571 37,000 339 Climbing Memphis Center
Sat 03:18:37 PM 37.1217 -88.0053 132° Southeast 496 571 37,000  Level Memphis Center
Sat 03:19:39 PM 37.0272 -87.8767 133° Southeast 496 571 37,000  Level Memphis Center
Sat 03:20:41 PM 36.9333 -87.7494 133° Southeast 496 571 37,000  Level Memphis Center
Sat 03:21:43 PM 36.8400 -87.6222 132° Southeast 496 571 37,000  Level Memphis Center
Sat 03:22:45 PM 36.7283 -87.4719 133° Southeast 496 571 37,000  Level Memphis Center
Sat 03:23:47 PM 36.6339 -87.3439 133° Southeast 496 571 37,000  Level Memphis Center
Sat 03:24:49 PM 36.5378 -87.2156 133° Southeast 498 573 37,000  Level Memphis Center
Sat 03:25:51 PM 36.4406 -87.0883 134° Southeast 501 577 37,000  Level Memphis Center
Sat 03:26:53 PM 36.3339 -86.9489 133° Southeast 502 578 37,000  Level Memphis Center
Sat 03:27:54 PM 36.2375 -86.8231 134° Southeast 502 578 37,000  Level Memphis Center
Sat 03:28:56 PM 36.1386 -86.6969 134° Southeast 500 575 37,000  Level Memphis Center
Sat 03:29:58 PM 36.0228 -86.6272 154° Southeast 462 532 37,000  Level Memphis Center
Sat 03:31:00 PM 35.9044 -86.5692 158° South 457 526 37,000  Level Memphis Center
Sat 03:32:02 PM 35.7858 -86.5117 159° South 456 525 37,000  Level Memphis Center
Sat 03:33:04 PM 35.6656 -86.4531 158° South 456 525 37,000  Level Memphis Center
Sat 03:34:06 PM 35.5469 -86.3936 158° South 456 525 37,000  Level Memphis Center
Sat 03:35:08 PM 35.4083 -86.3253 158° South 456 525 37,000  Level Memphis Center
Sat 03:36:10 PM 35.2883 -86.2667 158° South 456 525 37,000  Level Memphis Center
Sat 03:37:12 PM 35.1692 -86.2078 158° South 457 526 37,000  Level Memphis Center
Sat 03:38:14 PM 35.0603 -86.1561 159° South 458 527 37,000  Level Memphis Center
Sat 03:39:15 PM 34.9181 -86.0864 158° South 458 527 37,000  Level Memphis Center
Sat 03:40:17 PM 34.8025 -86.0308 158° South 458 527 37,000  Level Memphis Center
Sat 03:41:19 PM 34.6836 -85.9736 158° South 458 527 37,000  Level Memphis Center
Sat 03:42:21 PM 34.5647 -85.9200 160° South 458 527 37,000  Level Memphis Center
Sat 03:43:23 PM 34.4467 -85.8667 160° South 457 526 37,000  Level Memphis Center
Sat 03:44:34 PM 34.3056 -85.8017 159° South 459 528 37,000  Level Atlanta Center
Sat 03:45:34 PM 34.1872 -85.7514 161° South 453 521 37,000  Level Atlanta Center
Sat 03:46:34 PM 34.0669 -85.6964 159° South 458 527 37,000  Level Atlanta Center
Sat 03:47:34 PM 33.9486 -85.6439 160° South 458 527 37,000  Level Atlanta Center
Sat 03:48:34 PM 33.8283 -85.5917 160° South 458 527 37,000  Level Atlanta Center
Sat 03:49:34 PM 33.7100 -85.5422 161° South 458 527 37,000  Level Atlanta Center
Sat 03:50:34 PM 33.5808 -85.5125 169° South 442 509 37,000  Level Atlanta Center
Sat 03:51:34 PM 33.4622 -85.4906 171° South 442 509 37,000  Level Atlanta Center
Sat 03:52:34 PM 33.3475 -85.4886 179° South 420 483 37,000  Level Atlanta Center
Sat 03:53:34 PM 33.2453 -85.4794 176° South 414 476 37,000  Level Atlanta Center
Sat 03:54:34 PM 33.1181 -85.4650 175° South 422 486 37,000  Level Atlanta Center
Sat 03:55:34 PM 33.0081 -85.4036 155° Southeast 449 517 37,000  Level Atlanta Center
Sat 03:56:34 PM 32.8897 -85.3450 157° South 461 531 37,000  Level Atlanta Center
Sat 03:57:34 PM 32.7736 -85.2889 158° South 467 537 37,000  Level Atlanta Center
Sat 03:58:34 PM 32.6508 -85.2281 157° South 467 537 37,000  Level Atlanta Center
Sat 03:59:34 PM 32.5325 -85.1697 157° South 467 537 37,000  Level Atlanta Center
Sat 04:00:34 PM 32.4100 -85.1117 158° South 467 537 37,000  Level Atlanta Center
Sat 04:01:34 PM 32.2933 -85.0561 158° South 467 537 37,000  Level Atlanta Center
Sat 04:02:34 PM 32.1667 -84.9983 159° South 455 524 37,000  Level Atlanta Center
Sat 04:03:34 PM 32.0481 -84.9431 158° South 455 524 37,000  Level Atlanta Center
Sat 04:04:34 PM 31.9317 -84.8831 156° South 449 517 37,000  Level Atlanta Center
Sat 04:05:34 PM 31.8131 -84.8283 159° South 449 517 37,000  Level Atlanta Center
Sat 04:07:54 PM 31.5481 -84.7014 158° South 461 531 37,000  Level Jacksonville Center
Sat 04:08:54 PM 31.4319 -84.6456 158° South 461 531 37,000  Level Jacksonville Center
Sat 04:09:54 PM 31.3117 -84.5900 158° South 461 531 37,000  Level Jacksonville Center
Sat 04:10:54 PM 31.1933 -84.5342 158° South 461 531 37,000  Level Jacksonville Center
Sat 04:11:54 PM 31.0750 -84.4764 157° South 461 531 37,000  Level Jacksonville Center
Sat 04:12:54 PM 30.9567 -84.4211 158° South 461 531 37,000  Level Jacksonville Center
Sat 04:13:54 PM 30.8383 -84.3661 158° South 461 531 37,000  Level Jacksonville Center
Sat 04:14:54 PM 30.7200 -84.3133 159° South 461 531 37,000  Level Jacksonville Center
Sat 04:15:54 PM 30.6058 -84.2586 158° South 456 525 37,000  Level Jacksonville Center
Sat 04:16:54 PM 30.4792 -84.1989 158° South 451 519 37,000  Level Jacksonville Center
Sat 04:17:54 PM 30.3669 -84.1469 158° South 446 513 37,000  Level Jacksonville Center
Sat 04:18:54 PM 30.2503 -84.0950 159° South 446 513 37,000  Level Jacksonville Center
Sat 04:19:54 PM 30.1381 -84.0406 157° South 446 513 37,000  Level Jacksonville Center
Sat 04:20:54 PM 30.0217 -83.9889 159° South 446 513 37,000  Level Jacksonville Center
Sat 04:21:54 PM 29.9072 -83.9350 158° South 446 513 37,000  Level Jacksonville Center
Sat 04:22:54 PM 29.7908 -83.8786 157° South 451 519 37,000 -350 Level Jacksonville Center
Sat 04:23:54 PM 29.6808 -83.8081 151° Southeast 451 519 36,300 -850 Descending Jacksonville Center
Sat 04:24:54 PM 29.5706 -83.7356 150° Southeast 451 519 35,300 -650 Descending Jacksonville Center
Sat 04:25:54 PM 29.4583 -83.6631 151° Southeast 456 525 35,000 -150 Descending Jacksonville Center
Sat 04:26:54 PM 29.3481 -83.5906 150° Southeast 456 525 35,000  Level Jacksonville Center
Sat 04:27:54 PM 29.2358 -83.5208 152° Southeast 456 525 35,000  Level Jacksonville Center
Sat 04:28:54 PM 29.1214 -83.4464 150° Southeast 456 525 35,000  Level Jacksonville Center
Sat 04:29:54 PM 29.0108 -83.3792 152° Southeast 456 525 35,000  Level Jacksonville Center
Sat 04:30:54 PM 28.8942 -83.3147 154° Southeast 456 525 35,000  Level Jacksonville Center
Sat 04:31:54 PM 28.7714 -83.2717 163° South 456 525 35,000 -200 Level Jacksonville Center
Sat 04:32:54 PM 28.6503 -83.2286 163° South 462 532 34,600 -650 Descending Jacksonville Center
Sat 04:33:54 PM 28.5397 -83.1856 161° South 462 532 33,700 -1,000 Descending Jacksonville Center
Sat 04:34:54 PM 28.4042 -83.1403 164° South 462 532 32,600 -1,294 Descending Jacksonville Center
Sat 04:36:27 PM 28.2244 -83.0761 163° South 445 512 30,400 -2,078 Descending Miami Center
Sat 04:37:27 PM 28.1033 -83.0294 161° South 455 524 27,300 -1,700 Descending Miami Center
Sat 04:38:27 PM 27.9825 -82.9783 160° South 462 532 27,000 -150 Descending Miami Center
Sat 04:39:27 PM 27.8639 -82.9250 158° South 462 532 27,000 -300 Level Miami Center
Sat 04:40:27 PM 27.7267 -82.8614 158° South 468 539 26,400 -750 Descending Miami Center
Sat 04:41:27 PM 27.6228 -82.8019 153° Southeast 470 541 25,500 -950 Descending Miami Center
Sat 04:42:27 PM 27.5025 -82.7303 152° Southeast 482 555 24,500 -1,850 Descending Miami Center
Sat 04:43:27 PM 27.3767 -82.6492 150° Southeast 482 555 21,800 -2,200 Descending Miami Center
Sat 04:44:27 PM 27.2667 -82.5781 150° Southeast 468 539 20,100 -1,750 Descending Miami Center
Sat 04:45:27 PM 27.1689 -82.5175 151° Southeast 453 521 18,300 -2,000 Descending Miami Center
Sat 04:46:27 PM 27.0608 -82.4514 151° Southeast 448 516 16,100 -2,400 Descending Miami Center
Sat 04:47:27 PM 26.9508 -82.3811 150° Southeast 424 488 13,500 -1,900 Descending Miami Center
Sat 04:48:27 PM 26.8569 -82.3231 151° Southeast 402 463 12,300 -1,050 Descending Miami Center
Sat 04:49:27 PM 26.7778 -82.2681 148° Southeast 358 412 11,400 -1,200 Descending Miami Center
Sat 04:50:27 PM 26.7047 -82.2114 145° Southeast 329 379 9,900 -1,550 Descending Miami Center
Sat 04:51:27 PM 26.6317 -82.1522 144° Southeast 318 366 8,300 -1,450 Descending Miami Center
Sat 04:52:27 PM 26.5625 -82.1006 146° Southeast 318 366 7,000 -1,300 Descending Miami Center
Sat 04:53:27 PM 26.5103 -82.0447 136° Southeast 302 348 5,700 -1,000 Descending Miami Center
Sat 04:54:27 PM 26.4733 -81.9689 119° Southeast 284 327 5,000 -650 Descending Miami Center
Sat 04:55:27 PM 26.4442 -81.9097 119° Southeast 238 274 4,400 -600 Descending Miami Center
Sat 04:57:00 PM 26.5263 -81.7594 50° Northeast  Level FlightAware
Sat 05:04:00 PM 26.5333 -81.7500 50° Northeast  Level FlightAware
Sat 05:05:00 PM 26.5362 -81.7552 50° Northeast  Level Estimated
Sat 05:06:00 PM 26.5333 -81.7500 50° Northeast  Level FlightAware
Sat 05:07:00 PM 26.5362 -81.7552 50° Northeast  Level Estimated

Login

Don't have an account? Register now (free) for customized features, flight alerts, and more!